createdAt,value
2022-12-17T00:01:27.861Z,29.40
2022-12-17T00:06:48.089Z,29.92
2022-12-17T00:12:09.780Z,29.88
2022-12-17T00:17:30.150Z,29.10
2022-12-17T00:22:50.586Z,28.48
2022-12-17T00:28:10.985Z,27.80
2022-12-17T00:33:31.854Z,29.20
2022-12-17T00:38:51.993Z,28.40
2022-12-17T00:44:12.356Z,27.95
2022-12-17T00:49:32.851Z,27.90
2022-12-17T00:54:53.473Z,29.05
2022-12-17T01:00:17.074Z,27.52
2022-12-17T01:05:37.278Z,27.42
2022-12-17T01:10:57.399Z,28.38
2022-12-17T01:16:29.867Z,28.00
2022-12-17T01:21:50.303Z,28.17
2022-12-17T01:27:10.423Z,29.30
2022-12-17T01:32:30.496Z,28.58
2022-12-17T01:37:50.930Z,28.15
2022-12-17T01:43:11.251Z,27.50
2022-12-17T01:48:35.738Z,27.65
2022-12-17T01:54:01.519Z,28.45
2022-12-17T01:59:24.355Z,28.35
2022-12-17T02:04:45.205Z,27.45
2022-12-17T02:10:42.472Z,26.70
2022-12-17T02:16:11.482Z,28.65
2022-12-17T02:21:31.894Z,26.65
2022-12-17T02:27:05.730Z,27.70
2022-12-17T02:32:27.898Z,26.98
2022-12-17T02:37:48.057Z,27.60
2022-12-17T02:43:08.881Z,27.80
2022-12-17T02:48:30.867Z,26.42
2022-12-17T02:53:52.740Z,27.70
2022-12-17T02:59:13.098Z,25.92
2022-12-17T03:04:33.700Z,27.08
2022-12-17T03:09:54.099Z,27.48
2022-12-17T03:15:14.375Z,26.92
2022-12-17T03:20:34.571Z,26.05
2022-12-17T03:25:54.799Z,27.05
2022-12-17T03:31:18.824Z,25.65
2022-12-17T03:36:39.223Z,27.60
2022-12-17T03:41:59.535Z,26.90
2022-12-17T03:47:20.289Z,25.45
2022-12-17T03:52:40.486Z,24.67
2022-12-17T03:58:00.603Z,26.70
2022-12-17T04:03:21.059Z,26.63
2022-12-17T04:08:55.534Z,26.47
2022-12-17T04:14:15.632Z,26.60
2022-12-17T04:19:35.844Z,25.37
2022-12-17T04:24:56.080Z,26.40
2022-12-17T04:30:16.271Z,26.83
2022-12-17T04:35:36.528Z,26.20
2022-12-17T04:40:56.688Z,27.83
2022-12-17T04:46:18.150Z,28.77
2022-12-17T04:51:38.467Z,27.13
2022-12-17T04:56:58.679Z,28.00
2022-12-17T05:02:19.071Z,27.57
2022-12-17T05:07:39.248Z,28.00
2022-12-17T05:12:59.160Z,27.67
2022-12-17T05:18:24.730Z,29.80
2022-12-17T05:23:45.084Z,27.97
2022-12-17T05:29:08.054Z,27.13
2022-12-17T05:34:30.589Z,28.20
2022-12-17T05:39:50.643Z,28.33
2022-12-17T05:45:10.789Z,27.77
2022-12-17T05:50:31.147Z,29.85
2022-12-17T05:55:59.218Z,28.55
2022-12-17T06:01:21.862Z,27.70
2022-12-17T06:06:42.113Z,26.35
2022-12-17T06:12:03.122Z,24.90
2022-12-17T06:17:23.266Z,25.88
2022-12-17T06:22:43.356Z,24.77
2022-12-17T06:28:03.756Z,24.35
2022-12-17T06:33:29.175Z,25.48
2022-12-17T06:38:49.407Z,24.45
2022-12-17T06:44:09.500Z,22.38
2022-12-17T06:49:29.761Z,22.95
2022-12-17T06:54:49.809Z,24.50
2022-12-17T07:00:09.936Z,26.08
2022-12-17T07:05:30.930Z,24.27
2022-12-17T07:10:51.394Z,25.30
2022-12-17T07:16:13.448Z,25.02
2022-12-17T07:21:33.441Z,26.58
2022-12-17T07:26:53.508Z,26.02
2022-12-17T07:32:13.960Z,26.20
2022-12-17T07:37:34.056Z,26.05
2022-12-17T07:42:54.147Z,26.38
2022-12-17T07:48:14.642Z,26.33
2022-12-17T07:53:35.233Z,26.40
2022-12-17T07:58:55.501Z,27.92
2022-12-17T08:04:15.952Z,26.92
2022-12-17T08:09:36.202Z,28.33
2022-12-17T08:14:56.339Z,28.98
2022-12-17T08:20:16.491Z,30.50
2022-12-17T08:25:36.589Z,29.77
2022-12-17T08:30:56.865Z,28.98
2022-12-17T08:36:17.324Z,29.95
2022-12-17T08:41:37.294Z,26.92
2022-12-17T08:46:57.490Z,28.83
2022-12-17T08:52:18.763Z,28.65
2022-12-17T08:57:39.464Z,27.40
2022-12-17T09:02:59.642Z,31.13
2022-12-17T09:08:24.776Z,29.60
2022-12-17T09:13:45.166Z,28.23
2022-12-17T09:19:05.667Z,31.35
2022-12-17T09:24:26.299Z,29.08
2022-12-17T09:29:46.589Z,30.33
2022-12-17T09:35:06.771Z,29.10
2022-12-17T09:40:35.097Z,29.40
2022-12-17T09:46:14.179Z,28.33
2022-12-17T09:51:43.606Z,29.38
2022-12-17T09:57:03.930Z,28.45
2022-12-17T10:02:46.904Z,26.95
2022-12-17T10:08:08.985Z,28.75
2022-12-17T10:13:42.416Z,28.75
2022-12-17T10:19:03.392Z,27.30
2022-12-17T10:24:28.992Z,27.50
2022-12-17T10:29:50.648Z,28.48
2022-12-17T10:35:11.843Z,26.08
2022-12-17T10:40:52.252Z,29.33
2022-12-17T10:46:16.130Z,26.45
2022-12-17T10:51:46.075Z,25.02
2022-12-17T10:57:12.006Z,27.33
2022-12-17T11:02:39.407Z,29.00
2022-12-17T11:08:02.541Z,27.88
2022-12-17T11:13:28.303Z,28.17
2022-12-17T11:18:58.782Z,28.00
2022-12-17T11:24:22.997Z,29.30
2022-12-17T11:29:43.437Z,27.92
2022-12-17T11:35:32.627Z,28.70
2022-12-17T11:40:59.528Z,28.10
2022-12-17T11:46:36.109Z,26.63
2022-12-17T11:52:21.032Z,26.98
2022-12-17T11:58:01.092Z,27.75
2022-12-17T12:03:53.550Z,29.25
2022-12-17T12:09:26.063Z,27.33
2022-12-17T12:15:12.209Z,27.65
2022-12-17T12:20:51.380Z,26.90
2022-12-17T12:26:40.549Z,26.70
2022-12-17T12:32:38.301Z,25.17
2022-12-17T12:37:58.947Z,24.02
2022-12-17T12:43:36.354Z,22.75
2022-12-17T12:49:08.929Z,23.05
2022-12-17T12:54:45.236Z,24.73
2022-12-17T13:00:08.075Z,25.05
2022-12-17T13:05:34.737Z,21.17
2022-12-17T13:10:37.626Z,23.73
2022-12-17T13:15:43.890Z,22.55
2022-12-17T13:20:58.149Z,22.50
2022-12-17T13:26:20.764Z,22.10
2022-12-17T13:31:44.104Z,23.85
2022-12-17T13:37:09.250Z,25.55
2022-12-17T13:42:32.437Z,23.77
2022-12-17T13:47:35.818Z,22.67
2022-12-17T13:52:37.504Z,22.88
2022-12-17T13:57:46.133Z,21.65
2022-12-17T14:02:48.904Z,22.45
2022-12-17T14:07:52.239Z,22.02
2022-12-17T14:13:04.724Z,21.45
2022-12-17T14:18:10.849Z,20.25
2022-12-17T14:23:28.795Z,19.92
2022-12-17T14:28:33.949Z,22.13
2022-12-17T14:33:37.723Z,21.55
2022-12-17T14:38:40.701Z,22.23
2022-12-17T14:43:44.638Z,22.33
2022-12-17T14:49:02.243Z,21.98
2022-12-17T14:54:06.974Z,21.80
2022-12-17T14:59:31.159Z,21.10
2022-12-17T15:04:33.580Z,27.67
2022-12-17T15:09:38.977Z,26.45
2022-12-17T15:14:40.653Z,22.48
2022-12-17T15:19:42.615Z,23.17
2022-12-17T15:24:45.405Z,23.90
2022-12-17T15:29:47.413Z,22.90
2022-12-17T15:34:50.462Z,20.40
2022-12-17T15:39:52.273Z,22.48
2022-12-17T15:44:53.997Z,24.80
2022-12-17T15:49:55.687Z,26.52
2022-12-17T15:54:57.999Z,26.13
2022-12-17T15:59:59.693Z,26.95
2022-12-17T16:05:01.425Z,25.45
2022-12-17T16:10:05.559Z,27.23
2022-12-17T16:15:08.883Z,28.02
2022-12-17T16:20:11.116Z,28.00
2022-12-17T16:25:12.812Z,28.77
2022-12-17T16:30:14.610Z,28.60
2022-12-17T16:35:16.447Z,28.23
2022-12-17T16:40:18.094Z,27.48
2022-12-17T16:45:19.789Z,26.92
2022-12-17T16:50:21.628Z,28.75
2022-12-17T16:55:23.324Z,28.77
2022-12-17T17:00:25.018Z,35.70
2022-12-17T17:05:26.781Z,35.53
2022-12-17T17:10:30.013Z,31.10
2022-12-17T17:15:32.473Z,28.73
2022-12-17T17:20:34.257Z,28.13
2022-12-17T17:25:57.829Z,27.63
2022-12-17T17:31:06.374Z,27.10
2022-12-17T17:36:10.728Z,26.50
2022-12-17T17:41:14.944Z,28.40
2022-12-17T17:46:18.749Z,29.35
2022-12-17T17:51:51.957Z,29.83
2022-12-17T17:56:47.277Z,27.40
2022-12-17T18:01:51.692Z,28.30
2022-12-17T18:07:23.736Z,25.73
2022-12-17T18:12:33.641Z,29.15
2022-12-17T18:17:35.330Z,25.25
2022-12-17T18:22:37.603Z,28.10
2022-12-17T18:27:39.649Z,29.75
2022-12-17T18:32:41.433Z,29.05
2022-12-17T18:37:43.128Z,28.00
2022-12-17T18:43:03.372Z,26.60
2022-12-17T18:48:05.712Z,28.63
2022-12-17T18:53:07.384Z,26.67
2022-12-17T18:58:09.145Z,27.92
2022-12-17T19:03:10.912Z,30.17
2022-12-17T19:08:12.610Z,27.57
2022-12-17T19:13:14.300Z,28.30
2022-12-17T19:18:16.285Z,27.40
2022-12-17T19:23:18.016Z,28.20
2022-12-17T19:28:20.899Z,27.73
2022-12-17T19:33:22.766Z,26.47
2022-12-17T19:38:24.479Z,26.63
2022-12-17T19:43:26.141Z,27.53
2022-12-17T19:48:27.803Z,28.00
2022-12-17T19:53:30.275Z,26.07
2022-12-17T19:58:31.921Z,27.63
2022-12-17T20:03:34.578Z,28.63
2022-12-17T20:08:36.938Z,28.17
2022-12-17T20:13:38.932Z,26.07
2022-12-17T20:18:41.605Z,27.20
2022-12-17T20:23:46.899Z,27.27
2022-12-17T20:28:48.581Z,26.40
2022-12-17T20:33:50.279Z,27.07
2022-12-17T20:38:52.067Z,26.17
2022-12-17T20:43:54.235Z,29.17
2022-12-17T20:48:55.912Z,29.57
2022-12-17T20:54:00.252Z,27.57
2022-12-17T20:59:05.719Z,28.57
2022-12-17T21:04:07.594Z,28.10
2022-12-17T21:09:09.466Z,28.60
2022-12-17T21:14:14.365Z,26.87
2022-12-17T21:19:18.202Z,26.40
2022-12-17T21:24:20.069Z,29.13
2022-12-17T21:29:21.767Z,28.40
2022-12-17T21:34:25.343Z,27.33
2022-12-17T21:39:27.616Z,28.37
2022-12-17T21:44:29.396Z,27.33
2022-12-17T21:49:31.470Z,27.90
2022-12-17T21:54:34.343Z,26.90
2022-12-17T21:59:36.007Z,26.40
2022-12-17T22:04:42.327Z,27.07
2022-12-17T22:09:51.610Z,27.23
2022-12-17T22:15:07.114Z,25.50
2022-12-17T22:20:10.537Z,27.10
2022-12-17T22:25:13.068Z,26.47
2022-12-17T22:30:35.957Z,27.47
2022-12-17T22:36:40.485Z,27.47
2022-12-17T22:44:30.054Z,28.27
2022-12-17T22:46:27.423Z,26.27
2022-12-17T22:51:36.968Z,26.77
2022-12-17T22:57:34.966Z,26.43
2022-12-17T23:02:05.304Z,27.07
2022-12-17T23:07:07.051Z,25.50
2022-12-17T23:12:27.629Z,25.33
2022-12-17T23:17:29.315Z,25.80
2022-12-17T23:22:31.009Z,25.50
2022-12-17T23:27:33.028Z,25.47
2022-12-17T23:32:36.393Z,25.17
2022-12-17T23:37:40.136Z,24.73
2022-12-17T23:42:42.225Z,25.80
2022-12-17T23:47:43.885Z,25.27
2022-12-17T23:52:45.572Z,24.97
2022-12-17T23:57:47.759Z,25.50
